createdAt,value
2018-08-25T00:00:06.289Z,1006.85
2018-08-25T00:01:15.714Z,1006.84
2018-08-25T00:02:25.391Z,1006.8
2018-08-25T00:03:35.310Z,1006.8
2018-08-25T00:04:44.984Z,1006.76
2018-08-25T00:05:54.179Z,1006.73
2018-08-25T00:07:03.880Z,1006.71
2018-08-25T00:08:13.567Z,1006.69
2018-08-25T00:09:22.738Z,1006.69
2018-08-25T00:10:31.893Z,1006.72
2018-08-25T00:11:41.313Z,1006.66
2018-08-25T00:12:51.253Z,1006.64
2018-08-25T00:14:00.399Z,1006.6
2018-08-25T00:15:10.056Z,1006.61
2018-08-25T00:16:19.229Z,1006.57
2018-08-25T00:17:28.913Z,1006.53
2018-08-25T00:18:38.831Z,1006.47
2018-08-25T00:19:48.764Z,1006.5
2018-08-25T00:20:58.428Z,1006.43
2018-08-25T00:22:07.322Z,1006.45
2018-08-25T00:23:16.737Z,1006.45
2018-08-25T00:24:26.168Z,1006.4
2018-08-25T00:25:35.571Z,1006.41
2018-08-25T00:26:45.520Z,1006.38
2018-08-25T00:27:55.193Z,1006.41
2018-08-25T00:29:04.627Z,1006.36
2018-08-25T00:30:14.052Z,1006.37
2018-08-25T00:31:23.475Z,1006.34
2018-08-25T00:32:32.902Z,1006.38
2018-08-25T00:33:42.588Z,1006.32
2018-08-25T00:34:52.277Z,1006.31
2018-08-25T00:36:02.216Z,1006.27
2018-08-25T00:37:11.886Z,1006.26
2018-08-25T00:38:21.302Z,1006.27
2018-08-25T00:39:30.291Z,1006.24
2018-08-25T00:40:39.954Z,1006.22
2018-08-25T00:41:49.126Z,1006.16
2018-08-25T00:42:58.779Z,1006.17
2018-08-25T00:44:07.684Z,1006.18
2018-08-25T00:45:17.097Z,1006.1
2018-08-25T00:46:26.012Z,1006.11
2018-08-25T00:47:35.707Z,1006.11
2018-08-25T00:48:45.767Z,1006.11
2018-08-25T00:49:54.934Z,1006.07
2018-08-25T00:51:04.598Z,1006.09
2018-08-25T00:52:14.013Z,1006.05
2018-08-25T00:53:23.169Z,1006.06
2018-08-25T00:54:32.599Z,1006.05
2018-08-25T00:55:41.237Z,1006.07
2018-08-25T00:56:50.138Z,1006.08
2018-08-25T00:57:59.568Z,1006.1
2018-08-25T00:59:08.995Z,1006.09
2018-08-25T01:00:18.865Z,1006.1
2018-08-25T01:01:28.021Z,1006.07
2018-08-25T01:02:37.167Z,1006.05
2018-08-25T01:03:47.104Z,1006.07
2018-08-25T01:04:56.548Z,1006.04
2018-08-25T01:06:05.461Z,1006.07
2018-08-25T01:07:14.877Z,1006.04
2018-08-25T01:08:24.019Z,1006.01
2018-08-25T01:09:33.459Z,1006.02
2018-08-25T01:10:42.614Z,1005.99
2018-08-25T01:11:52.030Z,1005.91
2018-08-25T01:13:01.443Z,1005.91
2018-08-25T01:14:11.099Z,1005.88
2018-08-25T01:15:20.775Z,1005.89
2018-08-25T01:16:30.191Z,1005.87
2018-08-25T01:17:39.612Z,1005.88
2018-08-25T01:18:48.819Z,1005.86
2018-08-25T01:19:57.981Z,1005.84
2018-08-25T01:21:07.396Z,1005.79
2018-08-25T01:22:16.809Z,1005.83
2018-08-25T01:23:26.239Z,1005.84
2018-08-25T01:24:35.923Z,1005.83
2018-08-25T01:25:45.094Z,1005.83
2018-08-25T01:26:54.269Z,1005.87
2018-08-25T01:28:03.707Z,1005.86
2018-08-25T01:29:13.399Z,1005.87
2018-08-25T01:30:22.815Z,1005.84
2018-08-25T01:31:31.978Z,1005.8
2018-08-25T01:32:41.145Z,1005.8
2018-08-25T01:33:50.069Z,1005.79
2018-08-25T01:34:59.752Z,1005.75
2018-08-25T01:36:09.181Z,1005.71
2018-08-25T01:37:18.874Z,1005.66
2018-08-25T01:38:28.574Z,1005.64
2018-08-25T01:39:38.024Z,1005.59
2018-08-25T01:40:47.711Z,1005.55
2018-08-25T01:41:56.876Z,1005.53
2018-08-25T01:43:06.303Z,1005.53
2018-08-25T01:44:15.750Z,1005.48
2018-08-25T01:45:24.916Z,1005.49
2018-08-25T01:46:33.809Z,1005.46
2018-08-25T01:47:43.237Z,1005.44
2018-08-25T01:48:52.395Z,1005.43
2018-08-25T01:50:01.554Z,1005.4
2018-08-25T01:51:10.209Z,1005.45
2018-08-25T01:52:19.895Z,1005.43
2018-08-25T01:53:29.070Z,1005.39
2018-08-25T01:54:38.749Z,1005.41
2018-08-25T01:55:48.220Z,1005.33
2018-08-25T01:56:57.897Z,1005.3
2018-08-25T01:58:07.073Z,1005.25
2018-08-25T01:59:16.227Z,1005.24
2018-08-25T02:00:25.626Z,1005.29
2018-08-25T02:01:35.101Z,1005.29
2018-08-25T02:02:44.573Z,1005.24
2018-08-25T02:03:54.853Z,1005.27
2018-08-25T02:05:04.272Z,1005.23
2018-08-25T02:06:14.221Z,1005.21
2018-08-25T02:07:23.902Z,1005.19
2018-08-25T02:08:33.575Z,1005.23
2018-08-25T02:09:42.745Z,1005.24
2018-08-25T02:10:52.429Z,1005.18
2018-08-25T02:12:01.859Z,1005.17
2018-08-25T02:13:11.296Z,1005.14
2018-08-25T02:14:20.455Z,1005.15
2018-08-25T02:15:30.152Z,1005.1
2018-08-25T02:16:39.823Z,1005.1
2018-08-25T02:17:49.017Z,1005.07
2018-08-25T02:18:58.424Z,1005.01
2018-08-25T02:20:07.837Z,1005.03
2018-08-25T02:21:17.519Z,1005.05
2018-08-25T02:22:27.460Z,1004.98
2018-08-25T02:23:36.635Z,1005.02
2018-08-25T02:24:45.785Z,1005.01
2018-08-25T02:25:55.456Z,1004.97
2018-08-25T02:27:04.891Z,1004.91
2018-08-25T02:28:14.435Z,1004.93
2018-08-25T02:29:24.480Z,1004.93
2018-08-25T02:30:34.213Z,1004.89
2018-08-25T02:31:43.650Z,1004.9
2018-08-25T02:32:53.338Z,1004.92
2018-08-25T02:34:02.500Z,1004.91
2018-08-25T02:35:12.188Z,1004.91
2018-08-25T02:36:21.104Z,1004.9
2018-08-25T02:37:30.053Z,1004.91
2018-08-25T02:38:39.824Z,1004.92
2018-08-25T02:39:49.875Z,1004.9
2018-08-25T02:40:59.047Z,1004.9
2018-08-25T02:42:08.742Z,1004.87
2018-08-25T02:43:17.898Z,1004.85
2018-08-25T02:44:27.589Z,1004.81
2018-08-25T02:45:37.273Z,1004.86
2018-08-25T02:46:46.976Z,1004.83
2018-08-25T02:47:56.683Z,1004.85
2018-08-25T02:49:06.130Z,1004.85
2018-08-25T02:50:15.298Z,1004.88
2018-08-25T02:51:24.722Z,1004.86
2018-08-25T02:52:33.633Z,1004.85
2018-08-25T02:53:43.053Z,1004.9
2018-08-25T02:54:51.977Z,1004.92
2018-08-25T02:56:01.404Z,1004.88
2018-08-25T02:57:11.336Z,1004.92
2018-08-25T02:58:20.758Z,1004.92
2018-08-25T02:59:30.428Z,1004.94
2018-08-25T03:00:40.107Z,1004.92
2018-08-25T03:01:50.036Z,1004.93
2018-08-25T03:02:59.203Z,1004.93
2018-08-25T03:04:08.644Z,1004.93
2018-08-25T03:05:17.808Z,1004.97
2018-08-25T03:06:27.227Z,1004.97
2018-08-25T03:07:36.662Z,1004.95
2018-08-25T03:08:46.359Z,1004.92
2018-08-25T03:09:55.777Z,1004.95
2018-08-25T03:11:05.453Z,1004.96
2018-08-25T03:12:14.611Z,1004.94
2018-08-25T03:13:24.041Z,1004.94
2018-08-25T03:14:33.221Z,1004.93
2018-08-25T03:15:42.900Z,1004.91
2018-08-25T03:16:52.323Z,1004.96
2018-08-25T03:18:01.754Z,1004.91
2018-08-25T03:19:10.920Z,1004.89
2018-08-25T03:20:20.085Z,1004.9
2018-08-25T03:21:29.772Z,1004.87
2018-08-25T03:22:38.729Z,1004.84
2018-08-25T03:23:48.155Z,1004.81
2018-08-25T03:24:57.609Z,1004.86
2018-08-25T03:26:06.518Z,1004.8
2018-08-25T03:27:15.676Z,1004.85
2018-08-25T03:28:25.087Z,1004.78
2018-08-25T03:29:34.524Z,1004.81
2018-08-25T03:30:43.940Z,1004.75
2018-08-25T03:31:53.636Z,1004.69
2018-08-25T03:33:03.045Z,1004.68
2018-08-25T03:34:12.481Z,1004.71
2018-08-25T03:35:21.970Z,1004.69
2018-08-25T03:36:31.635Z,1004.73
2018-08-25T03:37:41.569Z,1004.71
2018-08-25T03:38:51.275Z,1004.75
2018-08-25T03:40:00.966Z,1004.72
2018-08-25T03:41:10.925Z,1004.72
2018-08-25T03:42:19.814Z,1004.69
2018-08-25T03:43:29.501Z,1004.7
2018-08-25T03:44:38.916Z,1004.69
2018-08-25T03:45:48.336Z,1004.66
2018-08-25T03:46:58.022Z,1004.66
2018-08-25T03:48:07.193Z,1004.67
2018-08-25T03:49:17.138Z,1004.68
2018-08-25T03:50:26.304Z,1004.65
2018-08-25T03:51:35.793Z,1004.64
2018-08-25T03:52:45.207Z,1004.65
2018-08-25T03:53:54.631Z,1004.66
2018-08-25T03:55:04.060Z,1004.68
2018-08-25T03:56:13.738Z,1004.66
2018-08-25T03:57:23.141Z,1004.72
2018-08-25T03:58:32.571Z,1004.67
2018-08-25T03:59:42.258Z,1004.69
2018-08-25T04:00:51.192Z,1004.64
2018-08-25T04:02:00.869Z,1004.62
2018-08-25T04:03:10.284Z,1004.69
2018-08-25T04:04:19.724Z,1004.66
2018-08-25T04:05:29.181Z,1004.6
2018-08-25T04:06:38.355Z,1004.62
2018-08-25T04:07:48.034Z,1004.63
2018-08-25T04:08:57.189Z,1004.59
2018-08-25T04:10:07.201Z,1004.64
2018-08-25T04:11:16.849Z,1004.6
2018-08-25T04:12:26.031Z,1004.57
2018-08-25T04:13:35.440Z,1004.55
2018-08-25T04:14:45.192Z,1004.63
2018-08-25T04:15:55.735Z,1004.58
2018-08-25T04:17:05.158Z,1004.57
2018-08-25T04:18:14.579Z,1004.58
2018-08-25T04:19:24.256Z,1004.57
2018-08-25T04:20:34.193Z,1004.56
2018-08-25T04:21:43.875Z,1004.57
2018-08-25T04:22:53.308Z,1004.55
2018-08-25T04:24:02.543Z,1004.51
2018-08-25T04:25:11.195Z,1004.56
2018-08-25T04:26:20.640Z,1004.58
2018-08-25T04:27:30.069Z,1004.59
2018-08-25T04:28:39.745Z,1004.6
2018-08-25T04:29:48.926Z,1004.62
2018-08-25T04:30:58.600Z,1004.66
2018-08-25T04:32:07.785Z,1004.67
2018-08-25T04:33:17.519Z,1004.72
2018-08-25T04:34:26.716Z,1004.71
2018-08-25T04:35:36.134Z,1004.64
2018-08-25T04:36:45.833Z,1004.74
2018-08-25T04:37:55.251Z,1004.78
2018-08-25T04:39:05.189Z,1004.79
2018-08-25T04:40:14.874Z,1004.78
2018-08-25T04:41:23.866Z,1004.77
2018-08-25T04:42:33.782Z,1004.76
2018-08-25T04:43:43.215Z,1004.8
2018-08-25T04:44:52.919Z,1004.83
2018-08-25T04:46:02.091Z,1004.85
2018-08-25T04:47:11.782Z,1004.89
2018-08-25T04:48:21.467Z,1004.83
2018-08-25T04:49:31.149Z,1004.84
2018-08-25T04:52:41.019Z,1004.88
2018-08-25T04:53:50.448Z,1004.84
2018-08-25T04:54:59.606Z,1004.88
2018-08-25T04:56:09.022Z,1004.91
2018-08-25T04:57:18.441Z,1004.95
2018-08-25T04:58:28.133Z,1004.93
2018-08-25T04:59:37.556Z,1005.01
2018-08-25T05:00:47.245Z,1004.99
2018-08-25T05:01:57.226Z,1004.97
2018-08-25T05:03:07.541Z,1004.98
2018-08-25T05:04:17.490Z,1005
2018-08-25T05:05:26.947Z,1005
2018-08-25T05:06:36.366Z,1004.99
2018-08-25T05:07:46.132Z,1004.96
2018-08-25T05:08:56.077Z,1004.96
2018-08-25T05:10:05.771Z,1005.01
2018-08-25T05:11:15.446Z,1004.99
2018-08-25T05:12:24.935Z,1005.09
2018-08-25T05:13:34.096Z,1005.13
2018-08-25T05:14:43.009Z,1005.14
2018-08-25T05:15:52.703Z,1005.1
2018-08-25T05:17:02.192Z,1005.12
2018-08-25T05:18:11.602Z,1005.11
2018-08-25T05:19:20.784Z,1005.15
2018-08-25T05:20:30.460Z,1005.15
2018-08-25T05:21:39.898Z,1005.14
2018-08-25T05:22:49.780Z,1005.17
2018-08-25T05:23:59.456Z,1005.21
2018-08-25T05:25:08.359Z,1005.2
2018-08-25T05:26:17.851Z,1005.19
2018-08-25T05:27:27.511Z,1005.19
2018-08-25T05:28:36.428Z,1005.18
2018-08-25T05:29:46.098Z,1005.16
2018-08-25T05:30:55.259Z,1005.16
2018-08-25T05:32:04.439Z,1005.14
2018-08-25T05:33:14.122Z,1005.13
2018-08-25T05:34:23.546Z,1005.17
2018-08-25T05:35:33.225Z,1005.22
2018-08-25T05:36:42.915Z,1005.21
2018-08-25T05:37:52.336Z,1005.25
2018-08-25T05:39:01.561Z,1005.27
2018-08-25T05:40:11.008Z,1005.27
2018-08-25T05:41:20.693Z,1005.23
2018-08-25T05:42:30.361Z,1005.34
2018-08-25T05:43:39.271Z,1005.31
2018-08-25T05:44:48.998Z,1005.32
2018-08-25T05:45:58.503Z,1005.35
2018-08-25T05:47:08.178Z,1005.35
2018-08-25T05:48:17.593Z,1005.4
2018-08-25T05:49:27.006Z,1005.39
2018-08-25T05:50:36.431Z,1005.41
2018-08-25T05:51:45.875Z,1005.37
2018-08-25T05:52:55.049Z,1005.38
2018-08-25T05:54:04.991Z,1005.42
2018-08-25T05:55:14.409Z,1005.42
2018-08-25T05:56:24.072Z,1005.43
2018-08-25T05:57:34.023Z,1005.42
2018-08-25T05:58:44.155Z,1005.39
2018-08-25T05:59:53.325Z,1005.45
2018-08-25T06:01:02.741Z,1005.44
2018-08-25T06:02:12.182Z,1005.41
2018-08-25T06:03:21.613Z,1005.47
2018-08-25T06:04:31.289Z,1005.47
2018-08-25T06:05:40.482Z,1005.46
2018-08-25T06:06:49.906Z,1005.49
2018-08-25T06:07:59.114Z,1005.54
2018-08-25T06:09:08.792Z,1005.54
2018-08-25T06:10:17.441Z,1005.57
2018-08-25T06:11:26.614Z,1005.56
2018-08-25T06:12:36.019Z,1005.57
2018-08-25T06:13:45.434Z,1005.63
2018-08-25T06:14:55.113Z,1005.59
2018-08-25T06:16:05.068Z,1005.56
2018-08-25T06:17:14.235Z,1005.54
2018-08-25T06:18:24.163Z,1005.57
2018-08-25T06:19:33.598Z,1005.58
2018-08-25T06:20:42.772Z,1005.6
2018-08-25T06:21:52.472Z,1005.6
2018-08-25T06:23:02.152Z,1005.66
2018-08-25T06:24:11.839Z,1005.61
2018-08-25T06:25:21.254Z,1005.66
2018-08-25T06:26:30.940Z,1005.67
2018-08-25T06:27:40.686Z,1005.72
2018-08-25T06:28:50.109Z,1005.78
2018-08-25T06:29:59.828Z,1005.79
2018-08-25T06:31:08.762Z,1005.77
2018-08-25T06:32:17.954Z,1005.77
2018-08-25T06:33:27.878Z,1005.8
2018-08-25T06:34:37.308Z,1005.8
2018-08-25T06:35:47.001Z,1005.84
2018-08-25T06:36:56.554Z,1005.83
2018-08-25T06:38:06.250Z,1005.83
2018-08-25T06:39:16.247Z,1005.82
2018-08-25T06:40:25.434Z,1005.86
2018-08-25T06:41:34.858Z,1005.89
2018-08-25T06:42:44.531Z,1005.91
2018-08-25T06:43:53.951Z,1005.87
2018-08-25T06:45:03.622Z,1005.83
2018-08-25T06:46:12.788Z,1005.82
2018-08-25T06:47:22.753Z,1005.77
2018-08-25T06:48:31.915Z,1005.71
2018-08-25T06:49:41.089Z,1005.76
2018-08-25T06:50:50.779Z,1005.74
2018-08-25T06:52:00.204Z,1005.76
2018-08-25T06:53:09.921Z,1005.83
2018-08-25T06:54:20.341Z,1005.91
2018-08-25T06:55:30.304Z,1005.95
2018-08-25T06:56:39.981Z,1005.95
2018-08-25T06:57:49.660Z,1005.94
2018-08-25T06:58:59.326Z,1005.99
2018-08-25T07:00:09.000Z,1005.98
2018-08-25T07:01:18.166Z,1006.02
2018-08-25T07:02:28.103Z,1006
2018-08-25T07:03:37.502Z,1006.02
2018-08-25T07:04:47.436Z,1006.05
2018-08-25T07:05:57.446Z,1006.06
2018-08-25T07:07:07.829Z,1006.08
2018-08-25T07:08:17.493Z,1006.03
2018-08-25T07:09:27.354Z,1006
2018-08-25T07:10:36.778Z,1006.01
2018-08-25T07:11:45.678Z,1006.04
2018-08-25T07:12:55.403Z,1005.99
2018-08-25T07:14:05.478Z,1005.99
2018-08-25T07:15:14.899Z,1005.98
2018-08-25T07:16:24.327Z,1005.99
2018-08-25T07:17:34.015Z,1005.99
2018-08-25T07:18:43.166Z,1005.96
2018-08-25T07:19:53.042Z,1005.99
2018-08-25T07:21:02.211Z,1005.97
2018-08-25T07:22:11.879Z,1006.07
2018-08-25T07:23:21.558Z,1006.04
2018-08-25T07:24:30.478Z,1006.06
2018-08-25T07:25:40.170Z,1006.05
2018-08-25T07:26:50.173Z,1006.09
2018-08-25T07:27:59.078Z,1006.09
2018-08-25T07:29:08.749Z,1006.14
2018-08-25T07:30:18.714Z,1006.15
2018-08-25T07:31:27.884Z,1006.16
2018-08-25T07:32:37.335Z,1006.17
2018-08-25T07:33:47.026Z,1006.18
2018-08-25T07:34:56.456Z,1006.21
2018-08-25T07:36:05.901Z,1006.23
2018-08-25T07:37:15.335Z,1006.21
2018-08-25T07:38:25.109Z,1006.23
2018-08-25T07:39:34.631Z,1006.17
2018-08-25T07:40:43.792Z,1006.17
2018-08-25T07:41:53.218Z,1006.19
2018-08-25T07:43:03.181Z,1006.23
2018-08-25T07:44:12.859Z,1006.21
2018-08-25T07:45:22.212Z,1006.25
2018-08-25T07:46:32.158Z,1006.2
2018-08-25T07:47:41.317Z,1006.31
2018-08-25T07:48:50.482Z,1006.33
2018-08-25T07:49:59.647Z,1006.31
2018-08-25T07:51:09.065Z,1006.26
2018-08-25T07:52:18.527Z,1006.32
2018-08-25T07:53:28.228Z,1006.3
2018-08-25T07:54:38.005Z,1006.36
2018-08-25T07:55:47.177Z,1006.36
2018-08-25T07:56:56.841Z,1006.36
2018-08-25T07:58:06.560Z,1006.34
2018-08-25T07:59:16.032Z,1006.37
2018-08-25T08:00:26.225Z,1006.37
2018-08-25T08:01:35.902Z,1006.31
2018-08-25T08:02:45.078Z,1006.4
2018-08-25T08:03:54.235Z,1006.32
2018-08-25T08:05:03.926Z,1006.35
2018-08-25T08:06:13.331Z,1006.37
2018-08-25T08:07:23.293Z,1006.4
2018-08-25T08:08:33.029Z,1006.32
2018-08-25T08:09:42.196Z,1006.3
2018-08-25T08:10:51.348Z,1006.38
2018-08-25T08:12:00.306Z,1006.34
2018-08-25T08:13:09.843Z,1006.45
2018-08-25T08:14:19.560Z,1006.4
2018-08-25T08:15:29.491Z,1006.39
2018-08-25T08:16:38.646Z,1006.37
2018-08-25T08:17:47.792Z,1006.38
2018-08-25T08:18:57.456Z,1006.38
2018-08-25T08:20:06.898Z,1006.37
2018-08-25T08:21:16.328Z,1006.41
2018-08-25T08:22:25.731Z,1006.37
2018-08-25T08:23:35.418Z,1006.34
2018-08-25T08:24:45.107Z,1006.34
2018-08-25T08:25:54.821Z,1006.44
2018-08-25T08:27:04.518Z,1006.43
2018-08-25T08:28:14.197Z,1006.46
2018-08-25T08:29:22.851Z,1006.46
2018-08-25T08:30:32.018Z,1006.39
2018-08-25T08:31:41.946Z,1006.55
2018-08-25T08:32:50.929Z,1006.44
2018-08-25T08:34:00.159Z,1006.48
2018-08-25T08:35:09.823Z,1006.46
2018-08-25T08:36:18.987Z,1006.47
2018-08-25T08:37:28.398Z,1006.57
2018-08-25T08:38:37.543Z,1006.55
2018-08-25T08:39:46.960Z,1006.57
2018-08-25T08:40:56.653Z,1006.64
2018-08-25T08:42:05.804Z,1006.55
2018-08-25T08:43:15.961Z,1006.61
2018-08-25T08:44:25.372Z,1006.56
2018-08-25T08:45:34.299Z,1006.56
2018-08-25T08:46:44.097Z,1006.57
2018-08-25T08:47:54.034Z,1006.61
2018-08-25T08:49:03.734Z,1006.65
2018-08-25T08:50:12.962Z,1006.6
2018-08-25T08:51:22.552Z,1006.56
2018-08-25T08:52:31.975Z,1006.61
2018-08-25T08:53:41.649Z,1006.6
2018-08-25T08:54:51.082Z,1006.63
2018-08-25T08:56:00.788Z,1006.63
2018-08-25T08:57:10.483Z,1006.59
2018-08-25T08:58:20.047Z,1006.62
2018-08-25T08:59:29.619Z,1006.64
2018-08-25T09:00:39.038Z,1006.66
2018-08-25T09:01:48.475Z,1006.64
2018-08-25T09:02:57.642Z,1006.67
2018-08-25T09:04:07.051Z,1006.7
2018-08-25T09:05:16.727Z,1006.67
2018-08-25T09:06:26.493Z,1006.64
2018-08-25T09:07:35.386Z,1006.69
2018-08-25T09:08:44.553Z,1006.75
2018-08-25T09:09:53.473Z,1006.72
2018-08-25T09:11:03.178Z,1006.76
2018-08-25T09:12:13.122Z,1006.7
2018-08-25T09:13:22.036Z,1006.71
2018-08-25T09:14:31.446Z,1006.76
2018-08-25T09:15:40.614Z,1006.79
2018-08-25T09:16:49.761Z,1006.7
2018-08-25T09:17:59.181Z,1006.78
2018-08-25T09:19:08.932Z,1006.74
2018-08-25T09:20:19.035Z,1006.83
2018-08-25T09:21:28.204Z,1006.82
2018-08-25T09:22:37.893Z,1006.87
2018-08-25T09:23:47.319Z,1006.86
2018-08-25T09:24:56.492Z,1006.84
2018-08-25T09:26:05.920Z,1006.88
2018-08-25T09:27:15.400Z,1006.91
2018-08-25T09:28:25.368Z,1006.85
2018-08-25T09:29:34.794Z,1006.83
2018-08-25T09:30:44.471Z,1006.88
2018-08-25T09:31:54.175Z,1006.96
2018-08-25T09:33:03.874Z,1006.92
2018-08-25T09:34:13.284Z,1006.93
2018-08-25T09:35:22.956Z,1006.89
2018-08-25T09:36:32.075Z,1007.03
2018-08-25T09:37:42.286Z,1006.92
2018-08-25T09:38:51.207Z,1006.95
2018-08-25T09:40:00.359Z,1007
2018-08-25T09:41:09.779Z,1006.96
2018-08-25T09:42:19.288Z,1006.98
2018-08-25T09:43:28.200Z,1006.94
2018-08-25T09:44:37.632Z,1006.99
2018-08-25T09:45:46.795Z,1007
2018-08-25T09:46:55.729Z,1007.04
2018-08-25T09:48:05.450Z,1007
2018-08-25T09:49:14.874Z,1007.02
2018-08-25T09:50:24.046Z,1006.99
2018-08-25T09:51:34.146Z,1006.98
2018-08-25T09:52:43.547Z,1006.94
2018-08-25T09:53:52.732Z,1006.98
2018-08-25T09:55:02.174Z,1007.04
2018-08-25T09:56:11.867Z,1007.06
2018-08-25T09:57:21.301Z,1007.06
2018-08-25T09:58:30.719Z,1007.04
2018-08-25T09:59:40.420Z,1007.02
2018-08-25T10:00:50.106Z,1007.02
2018-08-25T10:01:59.791Z,1007.08
2018-08-25T10:03:09.225Z,1007.04
2018-08-25T10:04:18.390Z,1007.06
2018-08-25T10:05:28.090Z,1007.13
2018-08-25T10:06:36.762Z,1007.1
2018-08-25T10:07:46.214Z,1007.1
2018-08-25T10:08:56.156Z,1007.12
2018-08-25T10:10:05.348Z,1007.17
2018-08-25T10:11:14.763Z,1007.16
2018-08-25T10:12:24.710Z,1007.12
2018-08-25T10:13:34.172Z,1007.17
2018-08-25T10:14:43.862Z,1007.15
2018-08-25T10:15:53.290Z,1007.13
2018-08-25T10:17:03.221Z,1007.23
2018-08-25T10:18:13.161Z,1007.22
2018-08-25T10:19:22.594Z,1007.26
2018-08-25T10:20:32.266Z,1007.29
2018-08-25T10:21:41.443Z,1007.15
2018-08-25T10:22:50.938Z,1007.2
2018-08-25T10:24:00.728Z,1007.2
2018-08-25T10:25:10.405Z,1007.18
2018-08-25T10:26:19.821Z,1007.18
2018-08-25T10:27:29.010Z,1007.15
2018-08-25T10:28:38.469Z,1007.18
2018-08-25T10:29:48.139Z,1007.23
2018-08-25T10:30:57.557Z,1007.2
2018-08-25T10:32:06.784Z,1007.21
2018-08-25T10:33:15.931Z,1007.22
2018-08-25T10:34:25.873Z,1007.26
2018-08-25T10:35:35.347Z,1007.24
2018-08-25T10:36:44.603Z,1007.23
2018-08-25T10:37:53.506Z,1007.22
2018-08-25T10:39:02.143Z,1007.2
2018-08-25T10:40:11.300Z,1007.25
2018-08-25T10:41:20.717Z,1007.21
2018-08-25T10:42:30.425Z,1007.25
2018-08-25T10:43:39.844Z,1007.27
2018-08-25T10:44:49.772Z,1007.27
2018-08-25T10:45:58.943Z,1007.25
2018-08-25T10:47:08.113Z,1007.25
2018-08-25T10:48:17.027Z,1007.21
2018-08-25T10:49:26.699Z,1007.26
2018-08-25T10:50:36.139Z,1007.19
2018-08-25T10:51:45.808Z,1007.2
2018-08-25T10:52:55.749Z,1007.21
2018-08-25T10:54:05.219Z,1007.25
2018-08-25T10:55:14.740Z,1007.16
2018-08-25T10:56:24.172Z,1007.23
2018-08-25T10:57:33.595Z,1007.21
2018-08-25T10:58:43.265Z,1007.2
2018-08-25T10:59:52.680Z,1007.24
2018-08-25T11:01:02.367Z,1007.28
2018-08-25T11:02:13.052Z,1007.23
2018-08-25T11:03:22.199Z,1007.27
2018-08-25T11:04:31.880Z,1007.28
2018-08-25T11:05:41.308Z,1007.23
2018-08-25T11:06:50.730Z,1007.27
2018-08-25T11:07:59.900Z,1007.29
2018-08-25T11:09:08.546Z,1007.21
2018-08-25T11:10:18.507Z,1007.25
2018-08-25T11:11:27.660Z,1007.2
2018-08-25T11:12:36.562Z,1007.24
2018-08-25T11:13:46.237Z,1007.29
2018-08-25T11:14:55.905Z,1007.22
2018-08-25T11:16:05.077Z,1007.22
2018-08-25T11:17:14.752Z,1007.22
2018-08-25T11:18:23.444Z,1007.26
2018-08-25T11:19:33.126Z,1007.3
2018-08-25T11:20:42.865Z,1007.26
2018-08-25T11:21:51.777Z,1007.29
2018-08-25T11:23:01.724Z,1007.28
2018-08-25T11:24:11.413Z,1007.32
2018-08-25T11:25:20.842Z,1007.32
2018-08-25T11:26:29.740Z,1007.33
2018-08-25T11:27:38.899Z,1007.36
2018-08-25T11:28:48.328Z,1007.39
2018-08-25T11:29:57.506Z,1007.37
2018-08-25T11:31:06.921Z,1007.37
2018-08-25T11:32:16.342Z,1007.39
2018-08-25T11:33:25.241Z,1007.39
2018-08-25T11:34:34.955Z,1007.39
2018-08-25T11:35:44.119Z,1007.44
2018-08-25T11:36:53.809Z,1007.44
2018-08-25T11:38:03.074Z,1007.46
2018-08-25T11:39:13.265Z,1007.47
2018-08-25T11:40:22.424Z,1007.42
2018-08-25T11:41:31.584Z,1007.43
2018-08-25T11:42:41.523Z,1007.47
2018-08-25T11:43:50.189Z,1007.5
2018-08-25T11:44:59.569Z,1007.46
2018-08-25T11:46:09.263Z,1007.45
2018-08-25T11:47:17.920Z,1007.52
2018-08-25T11:48:27.607Z,1007.48
2018-08-25T11:49:36.779Z,1007.45
2018-08-25T11:50:45.942Z,1007.41
2018-08-25T11:51:54.922Z,1007.43
2018-08-25T11:53:04.354Z,1007.42
2018-08-25T11:54:13.811Z,1007.4
2018-08-25T11:55:23.960Z,1007.37
2018-08-25T11:56:33.760Z,1007.36
2018-08-25T11:57:43.714Z,1007.4
2018-08-25T11:58:52.879Z,1007.33
2018-08-25T12:00:02.597Z,1007.39
2018-08-25T12:01:12.554Z,1007.4
2018-08-25T12:02:22.579Z,1007.45
2018-08-25T12:03:35.037Z,1007.44
2018-08-25T12:04:44.285Z,1007.37
2018-08-25T12:05:53.957Z,1007.41
2018-08-25T12:07:03.375Z,1007.38
2018-08-25T12:08:12.803Z,1007.37
2018-08-25T12:09:22.252Z,1007.36
2018-08-25T12:10:32.173Z,1007.41
2018-08-25T12:11:41.086Z,1007.34
2018-08-25T12:12:51.017Z,1007.31
2018-08-25T12:14:00.702Z,1007.33
2018-08-25T12:15:09.857Z,1007.35
2018-08-25T12:16:19.425Z,1007.32
2018-08-25T12:17:29.440Z,1007.41
2018-08-25T12:18:38.374Z,1007.33
2018-08-25T12:19:49.236Z,1007.33
2018-08-25T12:20:58.413Z,1007.37
2018-08-25T12:22:08.097Z,1007.35
2018-08-25T12:23:17.794Z,1007.42
2018-08-25T12:24:26.962Z,1007.39
2018-08-25T12:25:36.130Z,1007.35
2018-08-25T12:26:45.303Z,1007.38
2018-08-25T12:27:54.987Z,1007.3
2018-08-25T12:29:04.398Z,1007.23
2018-08-25T12:30:14.062Z,1007.27
2018-08-25T12:31:23.238Z,1007.24
2018-08-25T12:32:32.907Z,1007.3
2018-08-25T12:33:42.073Z,1007.3
2018-08-25T12:34:51.226Z,1007.37
2018-08-25T12:36:00.895Z,1007.4
2018-08-25T12:37:10.075Z,1007.44
2018-08-25T12:38:19.750Z,1007.48
2018-08-25T12:39:29.788Z,1007.58
2018-08-25T12:40:39.895Z,1007.53
2018-08-25T12:41:49.333Z,1007.64
2018-08-25T12:42:58.537Z,1007.68
2018-08-25T12:44:08.096Z,1007.91
2018-08-25T12:45:17.527Z,1007.97
2018-08-25T12:46:26.949Z,1008.06
2018-08-25T12:47:35.871Z,1008.07
2018-08-25T12:48:45.054Z,1008.09
2018-08-25T12:49:55.573Z,1008.08
2018-08-25T12:51:05.012Z,1008.09
2018-08-25T12:52:14.172Z,1008.09
2018-08-25T12:53:23.856Z,1008.12
2018-08-25T12:54:33.038Z,1008.12
2018-08-25T12:55:42.464Z,1008.1
2018-08-25T12:56:51.365Z,1008.07
2018-08-25T12:58:00.616Z,1008.05
2018-08-25T12:59:09.914Z,1008.01
2018-08-25T13:00:19.307Z,1008
2018-08-25T13:01:29.005Z,1007.97
2018-08-25T13:02:39.124Z,1008.04
2018-08-25T13:03:48.813Z,1007.98
2018-08-25T13:04:58.501Z,1007.99
2018-08-25T13:06:07.430Z,1008
2018-08-25T13:07:16.968Z,1008.01
2018-08-25T13:08:26.847Z,1008
2018-08-25T13:09:36.307Z,1007.97
2018-08-25T13:10:45.227Z,1008
2018-08-25T13:11:54.140Z,1008
2018-08-25T13:13:03.579Z,1007.99
2018-08-25T13:14:13.503Z,1007.98
2018-08-25T13:15:22.974Z,1008
2018-08-25T13:16:32.409Z,1007.96
2018-08-25T13:17:41.583Z,1008.07
2018-08-25T13:18:51.317Z,1008.02
2018-08-25T13:20:00.980Z,1008
2018-08-25T13:21:10.159Z,1008.01
2018-08-25T13:22:19.836Z,1007.99
2018-08-25T13:23:29.619Z,1008.03
2018-08-25T13:24:38.591Z,1008
2018-08-25T13:25:47.755Z,1008.06
2018-08-25T13:26:57.439Z,1008.04
2018-08-25T13:28:06.336Z,1008.01
2018-08-25T13:29:15.767Z,1008.06
2018-08-25T13:30:25.186Z,1008.04
2018-08-25T13:31:34.618Z,1008.03
2018-08-25T13:32:44.326Z,1008.06
2018-08-25T13:33:53.497Z,1007.98
2018-08-25T13:35:02.905Z,1008.04
2018-08-25T13:36:11.818Z,1007.98
2018-08-25T13:37:20.732Z,1008.06
2018-08-25T13:38:30.149Z,1008.02
2018-08-25T13:39:39.849Z,1007.98
2018-08-25T13:40:49.547Z,1008.06
2018-08-25T13:41:58.977Z,1008.05
2018-08-25T13:43:08.452Z,1008.02
2018-08-25T13:44:17.392Z,1007.97
2018-08-25T13:45:26.748Z,1007.99
2018-08-25T13:46:36.581Z,1008.05
2018-08-25T13:47:46.282Z,1008.04
2018-08-25T13:48:55.952Z,1008.07
2018-08-25T13:50:05.630Z,1008.08
2018-08-25T13:51:14.848Z,1008.12
2018-08-25T13:52:24.561Z,1008.07
2018-08-25T13:53:34.076Z,1008.13
2018-08-25T13:54:43.752Z,1008.14
2018-08-25T13:55:53.698Z,1008.18
2018-08-25T13:57:02.849Z,1008.29
2018-08-25T13:58:12.835Z,1008.22
2018-08-25T13:59:23.063Z,1008.25
2018-08-25T14:00:32.237Z,1008.26
2018-08-25T14:01:41.933Z,1008.26
2018-08-25T14:02:51.345Z,1008.3
2018-08-25T14:03:59.995Z,1008.31
2018-08-25T14:05:09.407Z,1008.31
2018-08-25T14:06:18.830Z,1008.36